| time (UTC) | temp C | wind direction | speed KPH | gust KPH | rain 1hr cm | rain 24hr cm | rain mn cm | humidity % | barometer mb |
| 20260505184407 | 26 | 144 | 1.6 | 4.8 | 0.00 | 0.00 | 0.00 | 49 | 1018.3 |
| 20260505183904 | 26 | 178 | 6.4 | 14.5 | 0.00 | 0.00 | 0.00 | 48 | 1018.4 |
| 20260505183401 | 26 | 221 | 1.6 | 8.0 | 0.00 | 0.00 | 0.00 | 48 | 1018.3 |
| 20260505182857 | 26 | 206 | 0.0 | 16.1 | 0.00 | 0.00 | 0.00 | 46 | 1018.3 |
| 20260505182354 | 26 | 137 | 3.2 | 8.0 | 0.00 | 0.00 | 0.00 | 46 | 1018.2 |
| 20260505181851 | 26 | 225 | 4.8 | 9.7 | 0.00 | 0.00 | 0.00 | 46 | 1018.0 |
| 20260505181348 | 26 | 215 | 9.7 | 9.7 | 0.00 | 0.00 | 0.00 | 46 | 1018.0 |
| 20260505180845 | 26 | 180 | 3.2 | 11.3 | 0.00 | 0.00 | 0.00 | 45 | 1018.0 |
| 20260505180341 | 27 | 163 | 1.6 | 8.0 | 0.00 | 0.00 | 0.00 | 45 | 1018.4 |
| 20260505175838 | 26 | 251 | 8.0 | 9.7 | 0.00 | 0.00 | 0.00 | 46 | 1018.1 |
| 20260505175334 | 26 | 162 | 4.8 | 11.3 | 0.00 | 0.00 | 0.00 | 48 | 1018.0 |
| 20260505174831 | 26 | 82 | 4.8 | 8.0 | 0.00 | 0.00 | 0.00 | 45 | 1018.1 |
| 20260505174328 | 26 | 159 | 6.4 | 8.0 | 0.00 | 0.00 | 0.00 | 47 | 1018.2 |
| 20260505173824 | 25 | 155 | 6.4 | 11.3 | 0.00 | 0.00 | 0.00 | 50 | 1018.4 |
| 20260505173320 | 26 | 130 | 3.2 | 8.0 | 0.00 | 0.00 | 0.00 | 48 | 1018.0 |
| 20260505172818 | 26 | 117 | 4.8 | 6.4 | 0.00 | 0.00 | 0.00 | 48 | 1018.0 |
| 20260505172316 | 26 | 159 | 8.0 | 11.3 | 0.00 | 0.00 | 0.00 | 47 | 1017.9 |
| 20260505171815 | 26 | 339 | 6.4 | 6.4 | 0.00 | 0.00 | 0.00 | 46 | 1018.4 |
| 20260505171313 | 26 | 251 | 4.8 | 9.7 | 0.00 | 0.00 | 0.00 | 46 | 1018.5 |
| 20260505170808 | 26 | 248 | 0.0 | 8.0 | 0.00 | 0.00 | 0.00 | 47 | 1018.5 |
| 20260505170306 | 26 | 31 | 3.2 | 9.7 | 0.00 | 0.00 | 0.00 | 46 | 1018.5 |
| 20260505165801 | 26 | 136 | 6.4 | 14.5 | 0.00 | 0.00 | 0.00 | 48 | 1018.6 |
| 20260505165257 | 25 | 70 | 1.6 | 8.0 | 0.00 | 0.00 | 0.00 | 49 | 1018.6 |
| 20260505164753 | 25 | 201 | 6.4 | 11.3 | 0.00 | 0.00 | 0.00 | 49 | 1018.5 |
| 20260505164250 | 26 | 207 | 14.5 | 17.7 | 0.00 | 0.00 | 0.00 | 46 | 1019.1 |
| 20260505163748 | 27 | 164 | 1.6 | 11.3 | 0.00 | 0.00 | 0.00 | 47 | 1018.9 |
| 20260505163247 | 26 | 204 | 4.8 | 8.0 | 0.00 | 0.00 | 0.00 | 48 | 1018.6 |
| 20260505162744 | 26 | 315 | 1.6 | 6.4 | 0.00 | 0.00 | 0.00 | 49 | 1018.9 |
| 20260505162241 | 25 | 14 | 3.2 | 8.0 | 0.00 | 0.00 | 0.00 | 49 | 1018.9 |
| 20260505161737 | 25 | 176 | 3.2 | 4.8 | 0.00 | 0.00 | 0.00 | 49 | 1019.0 |
| 20260505161235 | 26 | 7 | 4.8 | 14.5 | 0.00 | 0.00 | 0.00 | 48 | 1018.9 |
| 20260505160732 | 25 | 127 | 1.6 | 6.4 | 0.00 | 0.00 | 0.00 | 49 | 1019.2 |
| 20260505160230 | 25 | 213 | 4.8 | 9.7 | 0.00 | 0.00 | 0.00 | 51 | 1019.2 |
| 20260505153209 | 25 | 147 | 3.2 | 4.8 | 0.00 | 0.00 | 0.00 | 55 | 1019.2 |
| 20260505152706 | 25 | 176 | 4.8 | 6.4 | 0.00 | 0.00 | 0.00 | 56 | 1019.2 |
| 20260505152202 | 25 | 113 | 4.8 | 9.7 | 0.00 | 0.00 | 0.00 | 54 | 1019.1 |
| 20260505151657 | 25 | 11 | 3.2 | 4.8 | 0.00 | 0.00 | 0.00 | 54 | 1019.1 |
| 20260505151155 | 24 | 36 | 1.6 | 8.0 | 0.00 | 0.00 | 0.00 | 56 | 1019.2 |
| 20260505150651 | 25 | 248 | 0.0 | 4.8 | 0.00 | 0.00 | 0.00 | 55 | 1019.1 |
| 20260505150148 | 25 | 235 | 4.8 | 8.0 | 0.00 | 0.00 | 0.00 | 54 | 1019.3 |
| 20260505140616 | 22 | 290 | 3.2 | 6.4 | 0.00 | 0.00 | 0.00 | 60 | 1019.0 |
| 20260505140114 | 22 | 296 | 1.6 | 6.4 | 0.00 | 0.00 | 0.00 | 62 | 1019.0 |
| 20260505125030 | 18 | 86 | 1.6 | 4.8 | 0.00 | 0.00 | 0.00 | 79 | 1019.0 |
| 20260505124526 | 18 | 141 | 0.0 | 3.2 | 0.00 | 0.00 | 0.00 | 80 | 1019.0 |
| 20260505124023 | 17 | 55 | 0.0 | 1.6 | 0.00 | 0.00 | 0.00 | 81 | 1019.1 |
| 20260505123519 | 17 | 322 | 0.0 | 0.0 | 0.00 | 0.00 | 0.00 | 85 | 1019.2 |
| 20260505123015 | 16 | 98 | 0.0 | 1.6 | 0.00 | 0.00 | 0.00 | 89 | 1019.0 |
| 20260505122513 | 16 | 347 | 0.0 | 0.0 | 0.00 | 0.00 | 0.00 | 93 | 1018.9 |
| 20260505122010 | 15 | 67 | 0.0 | 1.6 | 0.00 | 0.00 | 0.00 | 95 | 1019.0 |
| 20260505121506 | 15 | 50 | 0.0 | 0.0 | 0.00 | 0.00 | 0.00 | 96 | 1019.0 |
| 20260505121003 | 15 | 89 | 0.0 | 0.0 | 0.00 | 0.00 | 0.00 | 97 | 1019.0 |
| 20260505120459 | 13 | 129 | 0.0 | 0.0 | 0.00 | 0.00 | 0.00 | 97 | 1018.9 |
| 20260505115958 | 13 | 135 | 0.0 | 0.0 | 0.00 | 0.00 | 0.00 | 97 | 1018.9 |
| 20260505115454 | 13 | 103 | 0.0 | 0.0 | 0.00 | 0.00 | 0.00 | 97 | 1018.9 |
| 20260505114953 | 12 | 103 | 0.0 | 0.0 | 0.00 | 0.00 | 0.00 | 97 | 1018.8 |
| 20260505114449 | 12 | 30 | 0.0 | 0.0 | 0.00 | 0.00 | 0.00 | 97 | 1018.8 |
| 20260505113946 | 12 | 44 | 0.0 | 0.0 | 0.00 | 0.00 | 0.00 | 97 | 1018.7 |
| 20260505113442 | 12 | 44 | 0.0 | 0.0 | 0.00 | 0.00 | 0.00 | 97 | 1018.8 |
| 20260505112937 | 11 | 50 | 0.0 | 1.6 | 0.00 | 0.00 | 0.00 | 97 | 1018.6 |
| 20260505112435 | 11 | 315 | 0.0 | 0.0 | 0.00 | 0.00 | 0.00 | 97 | 1018.7 |
| 20260505111932 | 11 | 25 | 0.0 | 0.0 | 0.00 | 0.00 | 0.00 | 97 | 1018.7 |
| 20260505111426 | 11 | 25 | 0.0 | 0.0 | 0.00 | 0.00 | 0.00 | 97 | 1018.5 |
| 20260505110923 | 11 | 25 | 0.0 | 1.6 | 0.00 | 0.00 | 0.00 | 97 | 1018.4 |
| 20260505110420 | 11 | 352 | 0.0 | 0.0 | 0.00 | 0.00 | 0.00 | 97 | 1018.5 |
| 20260505101850 | 11 | 224 | 0.0 | 0.0 | 0.00 | 0.00 | 0.00 | 96 | 1017.8 |
| 20260505101345 | 11 | 157 | 0.0 | 0.0 | 0.00 | 0.00 | 0.00 | 96 | 1017.8 |
| 20260505100841 | 11 | 124 | 0.0 | 0.0 | 0.00 | 0.00 | 0.00 | 96 | 1017.8 |
| 20260505100338 | 11 | 11 | 0.0 | 0.0 | 0.00 | 0.00 | 0.00 | 96 | 1017.8 |
| 20260505095834 | 11 | 49 | 0.0 | 0.0 | 0.00 | 0.00 | 0.00 | 96 | 1017.7 |
| 20260505095332 | 11 | 89 | 0.0 | 0.0 | 0.00 | 0.00 | 0.00 | 96 | 1017.7 |
| 20260505094827 | 11 | 113 | 0.0 | 0.0 | 0.00 | 0.00 | 0.00 | 96 | 1017.5 |
| 20260505094325 | 11 | 113 | 0.0 | 0.0 | 0.00 | 0.00 | 0.00 | 96 | 1017.6 |
| 20260505093820 | 11 | 113 | 0.0 | 0.0 | 0.00 | 0.00 | 0.00 | 96 | 1017.6 |
| 20260505093318 | 11 | 92 | 0.0 | 3.2 | 0.00 | 0.00 | 0.00 | 96 | 1017.6 |
| 20260505092814 | 11 | 78 | 1.6 | 1.6 | 0.00 | 0.00 | 0.00 | 96 | 1017.5 |
| 20260505092313 | 11 | 113 | 0.0 | 0.0 | 0.00 | 0.00 | 0.00 | 96 | 1017.4 |
| 20260505091810 | 11 | 103 | 0.0 | 0.0 | 0.00 | 0.00 | 0.00 | 96 | 1017.4 |
| 20260505091308 | 11 | 102 | 0.0 | 1.6 | 0.00 | 0.00 | 0.00 | 96 | 1017.5 |
| 20260505090806 | 11 | 113 | 0.0 | 0.0 | 0.00 | 0.00 | 0.00 | 96 | 1017.6 |
| 20260505090304 | 11 | 113 | 0.0 | 0.0 | 0.00 | 0.00 | 0.00 | 96 | 1017.5 |
| 20260505085800 | 11 | 333 | 0.0 | 0.0 | 0.00 | 0.00 | 0.00 | 96 | 1017.4 |
| 20260505085258 | 11 | 333 | 0.0 | 0.0 | 0.00 | 0.00 | 0.00 | 96 | 1017.3 |
| 20260505084755 | 11 | 333 | 0.0 | 0.0 | 0.00 | 0.00 | 0.00 | 95 | 1017.5 |
| 20260505084249 | 11 | 333 | 0.0 | 0.0 | 0.00 | 0.00 | 0.00 | 95 | 1017.4 |
| 20260505083745 | 11 | 336 | 1.6 | 1.6 | 0.00 | 0.00 | 0.00 | 95 | 1017.2 |
| 20260505083242 | 11 | 13 | 0.0 | 0.0 | 0.00 | 0.00 | 0.00 | 95 | 1017.2 |
| 20260505082738 | 11 | 32 | 0.0 | 0.0 | 0.00 | 0.00 | 0.00 | 95 | 1017.1 |
| 20260505082235 | 11 | 135 | 0.0 | 0.0 | 0.00 | 0.00 | 0.00 | 95 | 1017.2 |
| 20260505081731 | 11 | 13 | 0.0 | 0.0 | 0.00 | 0.00 | 0.00 | 95 | 1017.1 |
| 20260505081229 | 11 | 13 | 0.0 | 0.0 | 0.00 | 0.00 | 0.00 | 95 | 1017.1 |
| 20260505080726 | 11 | 29 | 0.0 | 1.6 | 0.00 | 0.00 | 0.00 | 95 | 1017.0 |
| 20260505080221 | 11 | 309 | 0.0 | 0.0 | 0.00 | 0.00 | 0.00 | 95 | 1017.1 |
| 20260505075717 | 11 | 315 | 0.0 | 0.0 | 0.00 | 0.00 | 0.00 | 95 | 1017.1 |
| 20260505075214 | 11 | 73 | 0.0 | 1.6 | 0.00 | 0.00 | 0.00 | 94 | 1017.0 |
| 20260505074712 | 11 | 63 | 0.0 | 1.6 | 0.00 | 0.00 | 0.00 | 94 | 1016.9 |
| 20260505074208 | 11 | 110 | 0.0 | 1.6 | 0.00 | 0.00 | 0.00 | 94 | 1016.9 |
| 20260505073706 | 12 | 345 | 0.0 | 0.0 | 0.00 | 0.00 | 0.00 | 94 | 1017.2 |
| 20260505073204 | 12 | 199 | 0.0 | 0.0 | 0.00 | 0.00 | 0.00 | 94 | 1017.1 |
| 20260505072659 | 12 | 124 | 0.0 | 0.0 | 0.00 | 0.00 | 0.00 | 94 | 1016.9 |
| 20260505072156 | 12 | 55 | 0.0 | 0.0 | 0.00 | 0.00 | 0.00 | 94 | 1017.0 |
| 20260505071651 | 12 | 55 | 0.0 | 0.0 | 0.00 | 0.00 | 0.00 | 93 | 1017.0 |
| 20260505071150 | 12 | 66 | 0.0 | 0.0 | 0.00 | 0.00 | 0.00 | 94 | 1017.0 |
| 20260505070646 | 12 | 66 | 0.0 | 1.6 | 0.00 | 0.00 | 0.00 | 94 | 1017.0 |
| 20260505070143 | 12 | 49 | 1.6 | 1.6 | 0.00 | 0.00 | 0.00 | 93 | 1017.0 |
| 20260505065639 | 12 | 63 | 0.0 | 1.6 | 0.00 | 0.00 | 0.00 | 93 | 1017.1 |
| 20260505065136 | 12 | 38 | 1.6 | 1.6 | 0.00 | 0.00 | 0.00 | 93 | 1017.1 |
| 20260505064632 | 12 | 136 | 1.6 | 1.6 | 0.00 | 0.00 | 0.00 | 93 | 1017.1 |
| 20260505064131 | 12 | 157 | 0.0 | 0.0 | 0.00 | 0.00 | 0.00 | 93 | 1017.1 |
| 20260505063628 | 12 | 77 | 0.0 | 0.0 | 0.00 | 0.00 | 0.00 | 92 | 1017.1 |
| 20260505063124 | 12 | 315 | 0.0 | 0.0 | 0.00 | 0.00 | 0.00 | 92 | 1017.2 |
| 20260505062620 | 12 | 44 | 0.0 | 0.0 | 0.00 | 0.00 | 0.00 | 92 | 1017.4 |
| 20260505062118 | 12 | 50 | 0.0 | 0.0 | 0.00 | 0.00 | 0.00 | 92 | 1017.4 |
| 20260505061615 | 12 | 110 | 0.0 | 0.0 | 0.00 | 0.00 | 0.00 | 92 | 1017.8 |
| 20260505061113 | 12 | 66 | 0.0 | 0.0 | 0.00 | 0.00 | 0.00 | 92 | 1017.6 |
| 20260505060610 | 12 | 77 | 0.0 | 0.0 | 0.00 | 0.00 | 0.00 | 91 | 1017.9 |
| 20260505060107 | 12 | 50 | 0.0 | 1.6 | 0.00 | 0.00 | 0.00 | 91 | 1017.8 |
| 20260505055602 | 12 | 130 | 0.0 | 0.0 | 0.00 | 0.00 | 0.00 | 91 | 1017.8 |
| 20260505055059 | 12 | 60 | 0.0 | 0.0 | 0.00 | 0.00 | 0.00 | 91 | 1017.9 |
| 20260505054556 | 12 | 50 | 0.0 | 0.0 | 0.00 | 0.00 | 0.00 | 91 | 1017.8 |
| 20260505054054 | 12 | 50 | 0.0 | 1.6 | 0.00 | 0.00 | 0.00 | 90 | 1018.0 |
| 20260505053551 | 12 | 50 | 1.6 | 1.6 | 0.00 | 0.00 | 0.00 | 90 | 1017.9 |
| 20260505053048 | 12 | 54 | 0.0 | 1.6 | 0.00 | 0.00 | 0.00 | 90 | 1018.0 |
| 20260505052544 | 12 | 50 | 0.0 | 0.0 | 0.00 | 0.00 | 0.00 | 90 | 1018.2 |
| 20260505052042 | 12 | 111 | 0.0 | 0.0 | 0.00 | 0.00 | 0.00 | 89 | 1018.1 |
| 20260505051539 | 12 | 141 | 0.0 | 0.0 | 0.00 | 0.00 | 0.00 | 89 | 1018.2 |
| 20260505051037 | 12 | 19 | 0.0 | 0.0 | 0.00 | 0.00 | 0.00 | 89 | 1018.3 |
| 20260505050535 | 12 | 19 | 0.0 | 0.0 | 0.00 | 0.00 | 0.00 | 88 | 1018.2 |
| 20260505041502 | 13 | 11 | 0.0 | 0.0 | 0.00 | 0.00 | 0.00 | 84 | 1018.4 |
| 20260505041000 | 13 | 299 | 0.0 | 0.0 | 0.00 | 0.00 | 0.00 | 84 | 1018.3 |
| 20260505040457 | 13 | 119 | 0.0 | 1.6 | 0.00 | 0.00 | 0.00 | 83 | 1018.3 |
| 20260505035954 | 13 | 122 | 0.0 | 1.6 | 0.00 | 0.00 | 0.00 | 83 | 1018.2 |
| 20260505035450 | 13 | 129 | 0.0 | 0.0 | 0.00 | 0.00 | 0.00 | 83 | 1018.4 |
| 20260505034947 | 13 | 356 | 0.0 | 1.6 | 0.00 | 0.00 | 0.00 | 82 | 1018.3 |
| 20260505034443 | 13 | 89 | 0.0 | 0.0 | 0.00 | 0.00 | 0.00 | 82 | 1018.3 |
| 20260505033941 | 13 | 150 | 0.0 | 0.0 | 0.00 | 0.00 | 0.00 | 81 | 1018.4 |
| 20260505033437 | 13 | 186 | 0.0 | 0.0 | 0.00 | 0.00 | 0.00 | 81 | 1018.5 |
| 20260505032936 | 14 | 124 | 0.0 | 0.0 | 0.00 | 0.00 | 0.00 | 80 | 1018.1 |
| 20260505032433 | 14 | 129 | 0.0 | 1.6 | 0.00 | 0.00 | 0.00 | 80 | 1018.4 |
| 20260505031929 | 14 | 50 | 0.0 | 0.0 | 0.00 | 0.00 | 0.00 | 79 | 1018.3 |
| 20260505031426 | 14 | 287 | 0.0 | 0.0 | 0.00 | 0.00 | 0.00 | 78 | 1018.2 |
| 20260505030923 | 14 | 37 | 1.6 | 1.6 | 0.00 | 0.00 | 0.00 | 78 | 1018.4 |
| 20260505030419 | 15 | 129 | 0.0 | 0.0 | 0.00 | 0.00 | 0.00 | 77 | 1018.4 |
| 20260505025914 | 15 | 309 | 0.0 | 0.0 | 0.00 | 0.00 | 0.00 | 77 | 1018.4 |
| 20260505025412 | 15 | 124 | 0.0 | 0.0 | 0.00 | 0.00 | 0.00 | 76 | 1018.3 |
| 20260505024911 | 15 | 129 | 0.0 | 0.0 | 0.00 | 0.00 | 0.00 | 75 | 1018.3 |
| 20260505024408 | 15 | 113 | 0.0 | 1.6 | 0.00 | 0.00 | 0.00 | 75 | 1018.4 |
| 20260505023905 | 15 | 98 | 1.6 | 1.6 | 0.00 | 0.00 | 0.00 | 75 | 1018.2 |
| 20260505023402 | 15 | 89 | 0.0 | 1.6 | 0.00 | 0.00 | 0.00 | 74 | 1018.2 |
| 20260505022859 | 15 | 89 | 0.0 | 3.2 | 0.00 | 0.00 | 0.00 | 73 | 1018.1 |
| 20260505022356 | 15 | 89 | 0.0 | 1.6 | 0.00 | 0.00 | 0.00 | 73 | 1018.1 |
| 20260505021853 | 15 | 80 | 0.0 | 0.0 | 0.00 | 0.00 | 0.00 | 72 | 1018.2 |
| 20260505021349 | 15 | 124 | 0.0 | 1.6 | 0.00 | 0.00 | 0.00 | 71 | 1018.1 |
| 20260505020845 | 16 | 142 | 0.0 | 0.0 | 0.00 | 0.00 | 0.00 | 70 | 1018.2 |
| 20260505020341 | 16 | 129 | 0.0 | 0.0 | 0.00 | 0.00 | 0.00 | 69 | 1018.2 |
| 20260505015838 | 16 | 76 | 0.0 | 0.0 | 0.00 | 0.00 | 0.00 | 69 | 1018.1 |
| 20260505015335 | 16 | 79 | 0.0 | 1.6 | 0.00 | 0.00 | 0.00 | 68 | 1018.1 |
| 20260505014833 | 16 | 110 | 0.0 | 0.0 | 0.00 | 0.00 | 0.00 | 68 | 1018.2 |
| 20260505014329 | 16 | 89 | 0.0 | 0.0 | 0.00 | 0.00 | 0.00 | 68 | 1018.0 |
| 20260505013826 | 16 | 154 | 0.0 | 0.0 | 0.00 | 0.00 | 0.00 | 67 | 1018.1 |
| 20260505013323 | 16 | 129 | 0.0 | 1.6 | 0.00 | 0.00 | 0.00 | 66 | 1018.1 |
| 20260505012822 | 16 | 124 | 0.0 | 1.6 | 0.00 | 0.00 | 0.00 | 65 | 1018.1 |
| 20260505012319 | 17 | 133 | 1.6 | 1.6 | 0.00 | 0.00 | 0.00 | 64 | 1018.2 |
| 20260505011815 | 17 | 142 | 0.0 | 1.6 | 0.00 | 0.00 | 0.00 | 64 | 1017.9 |
| 20260505011312 | 17 | 173 | 0.0 | 1.6 | 0.00 | 0.00 | 0.00 | 63 | 1017.9 |
| 20260505010808 | 17 | 133 | 0.0 | 0.0 | 0.00 | 0.00 | 0.00 | 62 | 1017.9 |
| 20260505010304 | 17 | 135 | 0.0 | 1.6 | 0.00 | 0.00 | 0.00 | 61 | 1017.8 |
| 20260505005800 | 17 | 93 | 1.6 | 3.2 | 0.00 | 0.00 | 0.00 | 60 | 1017.8 |
| 20260505005257 | 17 | 55 | 0.0 | 1.6 | 0.00 | 0.00 | 0.00 | 60 | 1017.7 |
| 20260505004755 | 18 | 44 | 0.0 | 0.0 | 0.00 | 0.00 | 0.00 | 60 | 1018.0 |
| 20260505004250 | 18 | 142 | 0.0 | 0.0 | 0.00 | 0.00 | 0.00 | 59 | 1017.8 |
| 20260505003748 | 18 | 129 | 0.0 | 1.6 | 0.00 | 0.00 | 0.00 | 58 | 1017.7 |
| 20260505003246 | 18 | 140 | 0.0 | 0.0 | 0.00 | 0.00 | 0.00 | 57 | 1017.5 |
| 20260505002742 | 18 | 147 | 0.0 | 0.0 | 0.00 | 0.00 | 0.00 | 57 | 1017.8 |
| 20260505002239 | 19 | 121 | 0.0 | 1.6 | 0.00 | 0.00 | 0.00 | 55 | 1017.7 |
| 20260505001737 | 19 | 147 | 0.0 | 3.2 | 0.00 | 0.00 | 0.00 | 55 | 1017.7 |
| 20260505001234 | 19 | 147 | 1.6 | 1.6 | 0.00 | 0.00 | 0.00 | 54 | 1017.6 |
| 20260505000731 | 20 | 129 | 0.0 | 3.2 | 0.00 | 0.00 | 0.00 | 53 | 1017.7 |
| 20260505000229 | 20 | 124 | 1.6 | 3.2 | 0.00 | 0.00 | 0.00 | 52 | 1017.5 |
| 20260504235725 | 20 | 147 | 0.0 | 3.2 | 0.00 | 0.00 | 0.00 | 51 | 1017.7 |
| 20260504235221 | 20 | 128 | 0.0 | 3.2 | 0.00 | 0.00 | 0.00 | 51 | 1017.7 |
| 20260504234719 | 20 | 155 | 1.6 | 3.2 | 0.00 | 0.00 | 0.00 | 51 | 1017.5 |
| 20260504234216 | 20 | 145 | 1.6 | 3.2 | 0.00 | 0.00 | 0.00 | 50 | 1017.5 |
| 20260504233712 | 21 | 170 | 0.0 | 4.8 | 0.00 | 0.00 | 0.00 | 49 | 1017.3 |
| 20260504233208 | 21 | 123 | 3.2 | 4.8 | 0.00 | 0.00 | 0.00 | 49 | 1017.4 |
| 20260504232705 | 21 | 89 | 0.0 | 3.2 | 0.00 | 0.00 | 0.00 | 50 | 1017.4 |
| 20260504232202 | 21 | 129 | 3.2 | 4.8 | 0.00 | 0.00 | 0.00 | 49 | 1017.2 |
| 20260504231659 | 21 | 126 | 3.2 | 4.8 | 0.00 | 0.00 | 0.00 | 49 | 1017.3 |
| 20260504231155 | 21 | 291 | 1.6 | 6.4 | 0.00 | 0.00 | 0.00 | 49 | 1017.5 |
| 20260504230651 | 22 | 148 | 3.2 | 3.2 | 0.00 | 0.00 | 0.00 | 48 | 1017.3 |
| 20260504230150 | 22 | 202 | 1.6 | 6.4 | 0.00 | 0.00 | 0.00 | 48 | 1017.4 |
| 20260504225648 | 22 | 94 | 0.0 | 4.8 | 0.00 | 0.00 | 0.00 | 48 | 1017.3 |
| 20260504225144 | 22 | 154 | 6.4 | 9.7 | 0.00 | 0.00 | 0.00 | 47 | 1017.1 |
| 20260504224641 | 22 | 105 | 4.8 | 6.4 | 0.00 | 0.00 | 0.00 | 47 | 1017.2 |
| 20260504224138 | 22 | 148 | 4.8 | 8.0 | 0.00 | 0.00 | 0.00 | 47 | 1017.3 |
| 20260504223635 | 22 | 219 | 4.8 | 6.4 | 0.00 | 0.00 | 0.00 | 47 | 1017.2 |
| 20260504223131 | 23 | 139 | 11.3 | 14.5 | 0.00 | 0.00 | 0.00 | 45 | 1017.2 |
| 20260504222628 | 23 | 127 | 4.8 | 6.4 | 0.00 | 0.00 | 0.00 | 46 | 1017.3 |
| 20260504222125 | 23 | 138 | 1.6 | 6.4 | 0.00 | 0.00 | 0.00 | 47 | 1017.3 |
| 20260504221622 | 23 | 163 | 1.6 | 8.0 | 0.00 | 0.00 | 0.00 | 46 | 1017.4 |
| 20260504221119 | 23 | 150 | 1.6 | 11.3 | 0.00 | 0.00 | 0.00 | 45 | 1017.3 |
| 20260504220615 | 23 | 164 | 4.8 | 9.7 | 0.00 | 0.00 | 0.00 | 45 | 1017.2 |
| 20260504220113 | 23 | 177 | 3.2 | 8.0 | 0.00 | 0.00 | 0.00 | 46 | 1017.2 |
| 20260504215609 | 23 | 133 | 9.7 | 9.7 | 0.00 | 0.00 | 0.00 | 45 | 1017.3 |
| 20260504215107 | 23 | 138 | 9.7 | 11.3 | 0.00 | 0.00 | 0.00 | 44 | 1017.3 |
| 20260504214602 | 23 | 175 | 6.4 | 9.7 | 0.00 | 0.00 | 0.00 | 45 | 1016.9 |
| 20260504214059 | 23 | 162 | 3.2 | 14.5 | 0.00 | 0.00 | 0.00 | 45 | 1017.1 |
| 20260504213555 | 23 | 193 | 3.2 | 12.9 | 0.00 | 0.00 | 0.00 | 44 | 1017.2 |
| 20260504213052 | 23 | 193 | 3.2 | 12.9 | 0.00 | 0.00 | 0.00 | 44 | 1017.2 |
| 20260504212548 | 23 | 316 | 4.8 | 8.0 | 0.00 | 0.00 | 0.00 | 45 | 1017.2 |
| 20260504212046 | 23 | 198 | 3.2 | 9.7 | 0.00 | 0.00 | 0.00 | 44 | 1017.1 |
| 20260504211543 | 23 | 7 | 1.6 | 9.7 | 0.00 | 0.00 | 0.00 | 45 | 1017.0 |
| 20260504211039 | 23 | 167 | 1.6 | 14.5 | 0.00 | 0.00 | 0.00 | 43 | 1017.1 |
| 20260504210536 | 24 | 126 | 4.8 | 14.5 | 0.00 | 0.00 | 0.00 | 43 | 1017.2 |
| 20260504210033 | 25 | 197 | 6.4 | 14.5 | 0.00 | 0.00 | 0.00 | 42 | 1016.9 |
| 20260504205531 | 24 | 145 | 9.7 | 12.9 | 0.00 | 0.00 | 0.00 | 42 | 1017.3 |
| 20260504205029 | 25 | 175 | 8.0 | 8.0 | 0.00 | 0.00 | 0.00 | 44 | 1016.9 |
| 20260504204527 | 25 | 203 | 6.4 | 8.0 | 0.00 | 0.00 | 0.00 | 42 | 1017.0 |
| 20260504204026 | 25 | 145 | 8.0 | 11.3 | 0.00 | 0.00 | 0.00 | 42 | 1017.0 |
| 20260504203523 | 25 | 162 | 3.2 | 8.0 | 0.00 | 0.00 | 0.00 | 42 | 1017.2 |
| 20260504203020 | 25 | 73 | 3.2 | 12.9 | 0.00 | 0.00 | 0.00 | 41 | 1017.1 |
| 20260504202516 | 25 | 222 | 4.8 | 16.1 | 0.00 | 0.00 | 0.00 | 41 | 1017.1 |
| 20260504202013 | 25 | 129 | 3.2 | 8.0 | 0.00 | 0.00 | 0.00 | 40 | 1017.0 |
| 20260504201510 | 25 | 133 | 3.2 | 12.9 | 0.00 | 0.00 | 0.00 | 42 | 1017.3 |
| 20260504201008 | 25 | 71 | 6.4 | 14.5 | 0.00 | 0.00 | 0.00 | 40 | 1017.2 |
| 20260504200504 | 25 | 30 | 4.8 | 9.7 | 0.00 | 0.00 | 0.00 | 42 | 1017.3 |
| 20260504200000 | 25 | 341 | 3.2 | 12.9 | 0.00 | 0.00 | 0.00 | 41 | 1017.3 |
| 20260504195456 | 25 | 198 | 4.8 | 9.7 | 0.00 | 0.00 | 0.00 | 40 | 1017.2 |
| 20260504194953 | 26 | 137 | 6.4 | 17.7 | 0.00 | 0.00 | 0.00 | 40 | 1017.3 |
| 20260504194449 | 26 | 134 | 4.8 | 14.5 | 0.00 | 0.00 | 0.00 | 41 | 1017.3 |
| 20260504193945 | 26 | 210 | 9.7 | 9.7 | 0.00 | 0.00 | 0.00 | 39 | 1017.5 |
| 20260504193443 | 26 | 97 | 4.8 | 8.0 | 0.00 | 0.00 | 0.00 | 39 | 1017.5 |
| 20260504192941 | 26 | 11 | 6.4 | 9.7 | 0.00 | 0.00 | 0.00 | 36 | 1017.7 |
| 20260504192438 | 26 | 190 | 4.8 | 9.7 | 0.00 | 0.00 | 0.00 | 35 | 1017.4 |
| 20260504191937 | 27 | 109 | 3.2 | 6.4 | 0.00 | 0.00 | 0.00 | 34 | 1017.4 |
| 20260504191435 | 26 | 252 | 0.0 | 6.4 | 0.00 | 0.00 | 0.00 | 35 | 1017.5 |
| 20260504190935 | 26 | 149 | 4.8 | 14.5 | 0.00 | 0.00 | 0.00 | 36 | 1017.7 |
| 20260504190431 | 26 | 264 | 4.8 | 6.4 | 0.00 | 0.00 | 0.00 | 36 | 1017.5 |
| 20260504185928 | 26 | 218 | 1.6 | 4.8 | 0.00 | 0.00 | 0.00 | 35 | 1017.7 |
| 20260504185426 | 26 | 225 | 3.2 | 6.4 | 0.00 | 0.00 | 0.00 | 36 | 1017.8 |
| 20260504184921 | 26 | 283 | 3.2 | 9.7 | 0.00 | 0.00 | 0.00 | 37 | 1017.7 |